<?xml version="1.0" encoding="UTF-8" standalone="no" ?>
<gpx xmlns="http://www.topografix.com/GPX/1/1" xmlns:xsi="http://www.w3.org/2001/XMLSchema-instance" xsi:schemaLocation="http://www.topografix.com/GPX/1/1 http://www.topografix.com/GPX/1/1/gpx.xsd" version="1.1" creator="VisuGPX - https://www.visugpx.com">
  <metadata>
    <name>secteur Saverne - Dabo - Petite Pierre</name>
  </metadata>
  <trk>
    <name><![CDATA[secteur Saverne - Dabo - Petite Pierre_9]]></name>
    <trkseg>
      <trkpt lat="48.64508" lon="7.13917">
        <ele>430.7</ele>
        <time>2020-08-12T07:58:04Z</time>
      </trkpt>
      <trkpt lat="48.64508" lon="7.13917">
        <ele>430.7</ele>
        <time>2020-08-12T07:58:04Z</time>
      </trkpt>
      <trkpt lat="48.64508" lon="7.13917">
        <ele>430.7</ele>
        <time>2020-08-12T07:58:04Z</time>
      </trkpt>
      <trkpt lat="48.64508" lon="7.13917">
        <ele>430.7</ele>
        <time>2020-08-12T07:58:04Z</time>
      </trkpt>
      <trkpt lat="48.64508" lon="7.13917">
        <ele>430.7</ele>
        <time>2020-08-12T07:58:04Z</time>
      </trkpt>
      <trkpt lat="48.64508" lon="7.13917">
        <ele>430.7</ele>
        <time>2020-08-12T07:58:04Z</time>
      </trkpt>
      <trkpt lat="48.64508" lon="7.13917">
        <ele>430.7</ele>
        <time>2020-08-12T07:58:04Z</time>
      </trkpt>
      <trkpt lat="48.64508" lon="7.13917">
        <ele>430.7</ele>
        <time>2020-08-12T07:58:04Z</time>
      </trkpt>
      <trkpt lat="48.64512" lon="7.13912">
        <ele>431.7</ele>
        <time>2020-08-12T07:58:23Z</time>
      </trkpt>
      <trkpt lat="48.64512" lon="7.13903">
        <ele>430.5</ele>
        <time>2020-08-12T07:58:27Z</time>
      </trkpt>
      <trkpt lat="48.64512" lon="7.13895">
        <ele>430.9</ele>
        <time>2020-08-12T07:58:29Z</time>
      </trkpt>
      <trkpt lat="48.64512" lon="7.13885">
        <ele>430.7</ele>
        <time>2020-08-12T07:58:31Z</time>
      </trkpt>
      <trkpt lat="48.64511" lon="7.13875">
        <ele>430.8</ele>
        <time>2020-08-12T07:58:33Z</time>
      </trkpt>
      <trkpt lat="48.6451" lon="7.13864">
        <ele>430.8</ele>
        <time>2020-08-12T07:58:35Z</time>
      </trkpt>
      <trkpt lat="48.6451" lon="7.13852">
        <ele>431.9</ele>
        <time>2020-08-12T07:58:37Z</time>
      </trkpt>
      <trkpt lat="48.64512" lon="7.1384">
        <ele>432.2</ele>
        <time>2020-08-12T07:58:39Z</time>
      </trkpt>
      <trkpt lat="48.64513" lon="7.13828">
        <ele>432.2</ele>
        <time>2020-08-12T07:58:41Z</time>
      </trkpt>
      <trkpt lat="48.64513" lon="7.13815">
        <ele>432.8</ele>
        <time>2020-08-12T07:58:43Z</time>
      </trkpt>
      <trkpt lat="48.64512" lon="7.13802">
        <ele>433.8</ele>
        <time>2020-08-12T07:58:45Z</time>
      </trkpt>
      <trkpt lat="48.64509" lon="7.13789">
        <ele>435.4</ele>
        <time>2020-08-12T07:58:47Z</time>
      </trkpt>
      <trkpt lat="48.64507" lon="7.13776">
        <ele>437</ele>
        <time>2020-08-12T07:58:49Z</time>
      </trkpt>
      <trkpt lat="48.64505" lon="7.13762">
        <ele>438.2</ele>
        <time>2020-08-12T07:58:51Z</time>
      </trkpt>
      <trkpt lat="48.64505" lon="7.13749">
        <ele>439.5</ele>
        <time>2020-08-12T07:58:53Z</time>
      </trkpt>
      <trkpt lat="48.64506" lon="7.13735">
        <ele>440.4</ele>
        <time>2020-08-12T07:58:55Z</time>
      </trkpt>
      <trkpt lat="48.64507" lon="7.13723">
        <ele>441.1</ele>
        <time>2020-08-12T07:58:57Z</time>
      </trkpt>
      <trkpt lat="48.64508" lon="7.13711">
        <ele>441.8</ele>
        <time>2020-08-12T07:58:59Z</time>
      </trkpt>
      <trkpt lat="48.64508" lon="7.13699">
        <ele>442.1</ele>
        <time>2020-08-12T07:59:01Z</time>
      </trkpt>
      <trkpt lat="48.64507" lon="7.13685">
        <ele>442.2</ele>
        <time>2020-08-12T07:59:03Z</time>
      </trkpt>
      <trkpt lat="48.64506" lon="7.13671">
        <ele>442.1</ele>
        <time>2020-08-12T07:59:05Z</time>
      </trkpt>
      <trkpt lat="48.64504" lon="7.13659">
        <ele>442.8</ele>
        <time>2020-08-12T07:59:07Z</time>
      </trkpt>
      <trkpt lat="48.64503" lon="7.13648">
        <ele>443.8</ele>
        <time>2020-08-12T07:59:09Z</time>
      </trkpt>
      <trkpt lat="48.64501" lon="7.13635">
        <ele>444.7</ele>
        <time>2020-08-12T07:59:11Z</time>
      </trkpt>
      <trkpt lat="48.645" lon="7.13622">
        <ele>445.1</ele>
        <time>2020-08-12T07:59:13Z</time>
      </trkpt>
      <trkpt lat="48.64499" lon="7.13608">
        <ele>445.5</ele>
        <time>2020-08-12T07:59:15Z</time>
      </trkpt>
      <trkpt lat="48.645" lon="7.13596">
        <ele>445.7</ele>
        <time>2020-08-12T07:59:17Z</time>
      </trkpt>
      <trkpt lat="48.645" lon="7.1359">
        <ele>446</ele>
        <time>2020-08-12T07:59:19Z</time>
      </trkpt>
      <trkpt lat="48.64499" lon="7.13582">
        <ele>447.2</ele>
        <time>2020-08-12T08:00:03Z</time>
      </trkpt>
      <trkpt lat="48.64501" lon="7.13569">
        <ele>447.1</ele>
        <time>2020-08-12T08:00:06Z</time>
      </trkpt>
      <trkpt lat="48.64502" lon="7.13559">
        <ele>446.9</ele>
        <time>2020-08-12T08:00:08Z</time>
      </trkpt>
      <trkpt lat="48.64504" lon="7.13548">
        <ele>446.6</ele>
        <time>2020-08-12T08:00:10Z</time>
      </trkpt>
      <trkpt lat="48.64506" lon="7.13536">
        <ele>446.2</ele>
        <time>2020-08-12T08:00:12Z</time>
      </trkpt>
      <trkpt lat="48.6451" lon="7.13525">
        <ele>445.9</ele>
        <time>2020-08-12T08:00:14Z</time>
      </trkpt>
      <trkpt lat="48.64517" lon="7.13515">
        <ele>445.6</ele>
        <time>2020-08-12T08:00:16Z</time>
      </trkpt>
      <trkpt lat="48.64523" lon="7.13506">
        <ele>444.9</ele>
        <time>2020-08-12T08:00:18Z</time>
      </trkpt>
      <trkpt lat="48.64529" lon="7.13499">
        <ele>444.7</ele>
        <time>2020-08-12T08:00:20Z</time>
      </trkpt>
      <trkpt lat="48.64533" lon="7.13492">
        <ele>443.9</ele>
        <time>2020-08-12T08:00:22Z</time>
      </trkpt>
      <trkpt lat="48.64539" lon="7.13483">
        <ele>443.3</ele>
        <time>2020-08-12T08:00:24Z</time>
      </trkpt>
      <trkpt lat="48.64544" lon="7.13473">
        <ele>443.5</ele>
        <time>2020-08-12T08:00:26Z</time>
      </trkpt>
      <trkpt lat="48.64548" lon="7.13463">
        <ele>443.4</ele>
        <time>2020-08-12T08:00:28Z</time>
      </trkpt>
      <trkpt lat="48.64551" lon="7.13452">
        <ele>443.5</ele>
        <time>2020-08-12T08:00:30Z</time>
      </trkpt>
      <trkpt lat="48.64554" lon="7.13441">
        <ele>443.6</ele>
        <time>2020-08-12T08:00:32Z</time>
      </trkpt>
      <trkpt lat="48.64557" lon="7.13427">
        <ele>443.9</ele>
        <time>2020-08-12T08:00:34Z</time>
      </trkpt>
      <trkpt lat="48.6456" lon="7.13415">
        <ele>442.9</ele>
        <time>2020-08-12T08:00:36Z</time>
      </trkpt>
      <trkpt lat="48.64565" lon="7.13399">
        <ele>443.1</ele>
        <time>2020-08-12T08:00:38Z</time>
      </trkpt>
      <trkpt lat="48.64571" lon="7.13382">
        <ele>443</ele>
        <time>2020-08-12T08:00:40Z</time>
      </trkpt>
      <trkpt lat="48.64575" lon="7.13367">
        <ele>443.1</ele>
        <time>2020-08-12T08:00:42Z</time>
      </trkpt>
      <trkpt lat="48.64578" lon="7.13352">
        <ele>443.5</ele>
        <time>2020-08-12T08:00:44Z</time>
      </trkpt>
      <trkpt lat="48.64582" lon="7.13337">
        <ele>443.5</ele>
        <time>2020-08-12T08:00:46Z</time>
      </trkpt>
      <trkpt lat="48.64584" lon="7.13323">
        <ele>444.5</ele>
        <time>2020-08-12T08:00:48Z</time>
      </trkpt>
      <trkpt lat="48.64584" lon="7.13315">
        <ele>445.7</ele>
        <time>2020-08-12T08:00:50Z</time>
      </trkpt>
      <trkpt lat="48.64583" lon="7.13308">
        <ele>447.5</ele>
        <time>2020-08-12T08:00:56Z</time>
      </trkpt>
      <trkpt lat="48.64584" lon="7.13299">
        <ele>448.9</ele>
        <time>2020-08-12T08:01:03Z</time>
      </trkpt>
      <trkpt lat="48.64584" lon="7.1329">
        <ele>449.1</ele>
        <time>2020-08-12T08:01:05Z</time>
      </trkpt>
      <trkpt lat="48.64584" lon="7.13279">
        <ele>449.3</ele>
        <time>2020-08-12T08:01:07Z</time>
      </trkpt>
      <trkpt lat="48.64584" lon="7.13265">
        <ele>448.9</ele>
        <time>2020-08-12T08:01:09Z</time>
      </trkpt>
      <trkpt lat="48.64582" lon="7.1325">
        <ele>448.7</ele>
        <time>2020-08-12T08:01:11Z</time>
      </trkpt>
      <trkpt lat="48.6458" lon="7.13235">
        <ele>448.7</ele>
        <time>2020-08-12T08:01:13Z</time>
      </trkpt>
      <trkpt lat="48.64578" lon="7.1322">
        <ele>448.9</ele>
        <time>2020-08-12T08:01:15Z</time>
      </trkpt>
      <trkpt lat="48.64574" lon="7.13205">
        <ele>449.7</ele>
        <time>2020-08-12T08:01:17Z</time>
      </trkpt>
      <trkpt lat="48.64572" lon="7.13189">
        <ele>450</ele>
        <time>2020-08-12T08:01:19Z</time>
      </trkpt>
      <trkpt lat="48.64569" lon="7.13176">
        <ele>451.2</ele>
        <time>2020-08-12T08:01:21Z</time>
      </trkpt>
      <trkpt lat="48.64566" lon="7.13163">
        <ele>451.7</ele>
        <time>2020-08-12T08:01:23Z</time>
      </trkpt>
      <trkpt lat="48.64564" lon="7.13151">
        <ele>452.6</ele>
        <time>2020-08-12T08:01:25Z</time>
      </trkpt>
      <trkpt lat="48.6456" lon="7.1314">
        <ele>453.7</ele>
        <time>2020-08-12T08:01:27Z</time>
      </trkpt>
      <trkpt lat="48.64557" lon="7.13129">
        <ele>454.5</ele>
        <time>2020-08-12T08:01:29Z</time>
      </trkpt>
      <trkpt lat="48.64552" lon="7.1312">
        <ele>456.1</ele>
        <time>2020-08-12T08:01:31Z</time>
      </trkpt>
      <trkpt lat="48.64549" lon="7.13108">
        <ele>457.4</ele>
        <time>2020-08-12T08:01:33Z</time>
      </trkpt>
      <trkpt lat="48.64546" lon="7.13096">
        <ele>458.5</ele>
        <time>2020-08-12T08:01:35Z</time>
      </trkpt>
      <trkpt lat="48.64544" lon="7.13085">
        <ele>458.5</ele>
        <time>2020-08-12T08:01:37Z</time>
      </trkpt>
      <trkpt lat="48.64541" lon="7.13074">
        <ele>458.6</ele>
        <time>2020-08-12T08:01:39Z</time>
      </trkpt>
      <trkpt lat="48.64538" lon="7.13062">
        <ele>458.6</ele>
        <time>2020-08-12T08:01:41Z</time>
      </trkpt>
      <trkpt lat="48.64534" lon="7.1305">
        <ele>459</ele>
        <time>2020-08-12T08:01:43Z</time>
      </trkpt>
      <trkpt lat="48.64531" lon="7.13041">
        <ele>459.1</ele>
        <time>2020-08-12T08:01:45Z</time>
      </trkpt>
      <trkpt lat="48.64529" lon="7.13035">
        <ele>458.9</ele>
        <time>2020-08-12T08:01:49Z</time>
      </trkpt>
      <trkpt lat="48.64527" lon="7.13026">
        <ele>458.2</ele>
        <time>2020-08-12T08:01:54Z</time>
      </trkpt>
      <trkpt lat="48.64527" lon="7.13018">
        <ele>457.8</ele>
        <time>2020-08-12T08:01:56Z</time>
      </trkpt>
      <trkpt lat="48.64527" lon="7.13008">
        <ele>457.7</ele>
        <time>2020-08-12T08:01:58Z</time>
      </trkpt>
      <trkpt lat="48.64524" lon="7.12997">
        <ele>457.6</ele>
        <time>2020-08-12T08:02:00Z</time>
      </trkpt>
      <trkpt lat="48.64521" lon="7.12987">
        <ele>457.1</ele>
        <time>2020-08-12T08:02:02Z</time>
      </trkpt>
      <trkpt lat="48.64517" lon="7.12977">
        <ele>456.7</ele>
        <time>2020-08-12T08:02:04Z</time>
      </trkpt>
      <trkpt lat="48.64512" lon="7.12968">
        <ele>457.2</ele>
        <time>2020-08-12T08:02:06Z</time>
      </trkpt>
      <trkpt lat="48.64508" lon="7.12959">
        <ele>457</ele>
        <time>2020-08-12T08:02:08Z</time>
      </trkpt>
      <trkpt lat="48.64504" lon="7.12949">
        <ele>456.8</ele>
        <time>2020-08-12T08:02:10Z</time>
      </trkpt>
      <trkpt lat="48.645" lon="7.12938">
        <ele>456</ele>
        <time>2020-08-12T08:02:12Z</time>
      </trkpt>
      <trkpt lat="48.64495" lon="7.12927">
        <ele>455.4</ele>
        <time>2020-08-12T08:02:14Z</time>
      </trkpt>
      <trkpt lat="48.64489" lon="7.12917">
        <ele>455.1</ele>
        <time>2020-08-12T08:02:16Z</time>
      </trkpt>
      <trkpt lat="48.64484" lon="7.12905">
        <ele>454.9</ele>
        <time>2020-08-12T08:02:18Z</time>
      </trkpt>
      <trkpt lat="48.64479" lon="7.12893">
        <ele>455.1</ele>
        <time>2020-08-12T08:02:20Z</time>
      </trkpt>
      <trkpt lat="48.64474" lon="7.1288">
        <ele>455.8</ele>
        <time>2020-08-12T08:02:22Z</time>
      </trkpt>
      <trkpt lat="48.6447" lon="7.12869">
        <ele>456.1</ele>
        <time>2020-08-12T08:02:24Z</time>
      </trkpt>
      <trkpt lat="48.64466" lon="7.12858">
        <ele>456.1</ele>
        <time>2020-08-12T08:02:26Z</time>
      </trkpt>
      <trkpt lat="48.64463" lon="7.12846">
        <ele>456.1</ele>
        <time>2020-08-12T08:02:28Z</time>
      </trkpt>
      <trkpt lat="48.64461" lon="7.12834">
        <ele>456</ele>
        <time>2020-08-12T08:02:30Z</time>
      </trkpt>
      <trkpt lat="48.64457" lon="7.12822">
        <ele>456.4</ele>
        <time>2020-08-12T08:02:32Z</time>
      </trkpt>
      <trkpt lat="48.64454" lon="7.1281">
        <ele>456.3</ele>
        <time>2020-08-12T08:02:34Z</time>
      </trkpt>
      <trkpt lat="48.6445" lon="7.12798">
        <ele>457.2</ele>
        <time>2020-08-12T08:02:36Z</time>
      </trkpt>
      <trkpt lat="48.64447" lon="7.12785">
        <ele>457.7</ele>
        <time>2020-08-12T08:02:38Z</time>
      </trkpt>
      <trkpt lat="48.64445" lon="7.12773">
        <ele>458.4</ele>
        <time>2020-08-12T08:02:40Z</time>
      </trkpt>
      <trkpt lat="48.64442" lon="7.12761">
        <ele>458.3</ele>
        <time>2020-08-12T08:02:42Z</time>
      </trkpt>
      <trkpt lat="48.6444" lon="7.12748">
        <ele>458.4</ele>
        <time>2020-08-12T08:02:44Z</time>
      </trkpt>
      <trkpt lat="48.64438" lon="7.12736">
        <ele>457.8</ele>
        <time>2020-08-12T08:02:46Z</time>
      </trkpt>
      <trkpt lat="48.64435" lon="7.12724">
        <ele>457.7</ele>
        <time>2020-08-12T08:02:48Z</time>
      </trkpt>
      <trkpt lat="48.64434" lon="7.12712">
        <ele>457.5</ele>
        <time>2020-08-12T08:02:50Z</time>
      </trkpt>
      <trkpt lat="48.64432" lon="7.127">
        <ele>458</ele>
        <time>2020-08-12T08:02:52Z</time>
      </trkpt>
      <trkpt lat="48.64429" lon="7.12688">
        <ele>457.6</ele>
        <time>2020-08-12T08:02:54Z</time>
      </trkpt>
      <trkpt lat="48.64427" lon="7.12675">
        <ele>457.6</ele>
        <time>2020-08-12T08:02:56Z</time>
      </trkpt>
      <trkpt lat="48.64425" lon="7.12662">
        <ele>457.6</ele>
        <time>2020-08-12T08:02:58Z</time>
      </trkpt>
      <trkpt lat="48.64424" lon="7.1265">
        <ele>457.7</ele>
        <time>2020-08-12T08:03:00Z</time>
      </trkpt>
      <trkpt lat="48.64423" lon="7.12636">
        <ele>456.9</ele>
        <time>2020-08-12T08:03:02Z</time>
      </trkpt>
      <trkpt lat="48.64424" lon="7.12623">
        <ele>456.6</ele>
        <time>2020-08-12T08:03:04Z</time>
      </trkpt>
      <trkpt lat="48.64425" lon="7.1261">
        <ele>456.5</ele>
        <time>2020-08-12T08:03:06Z</time>
      </trkpt>
      <trkpt lat="48.64427" lon="7.12595">
        <ele>456.6</ele>
        <time>2020-08-12T08:03:08Z</time>
      </trkpt>
      <trkpt lat="48.64428" lon="7.12583">
        <ele>456.5</ele>
        <time>2020-08-12T08:03:10Z</time>
      </trkpt>
      <trkpt lat="48.64429" lon="7.12575">
        <ele>457.7</ele>
        <time>2020-08-12T08:03:14Z</time>
      </trkpt>
      <trkpt lat="48.64427" lon="7.12566">
        <ele>458.3</ele>
        <time>2020-08-12T08:03:20Z</time>
      </trkpt>
      <trkpt lat="48.64425" lon="7.12559">
        <ele>458.8</ele>
        <time>2020-08-12T08:03:22Z</time>
      </trkpt>
      <trkpt lat="48.64425" lon="7.12551">
        <ele>458.5</ele>
        <time>2020-08-12T08:03:25Z</time>
      </trkpt>
      <trkpt lat="48.64424" lon="7.12542">
        <ele>459.1</ele>
        <time>2020-08-12T08:03:27Z</time>
      </trkpt>
      <trkpt lat="48.64422" lon="7.12533">
        <ele>459.2</ele>
        <time>2020-08-12T08:03:29Z</time>
      </trkpt>
      <trkpt lat="48.6442" lon="7.12523">
        <ele>459.4</ele>
        <time>2020-08-12T08:03:31Z</time>
      </trkpt>
      <trkpt lat="48.64419" lon="7.12511">
        <ele>459.8</ele>
        <time>2020-08-12T08:03:33Z</time>
      </trkpt>
      <trkpt lat="48.64418" lon="7.12498">
        <ele>459.8</ele>
        <time>2020-08-12T08:03:35Z</time>
      </trkpt>
      <trkpt lat="48.64417" lon="7.12484">
        <ele>460.1</ele>
        <time>2020-08-12T08:03:37Z</time>
      </trkpt>
      <trkpt lat="48.64415" lon="7.12472">
        <ele>460.4</ele>
        <time>2020-08-12T08:03:39Z</time>
      </trkpt>
      <trkpt lat="48.64412" lon="7.12462">
        <ele>460.2</ele>
        <time>2020-08-12T08:03:41Z</time>
      </trkpt>
      <trkpt lat="48.64408" lon="7.12453">
        <ele>460.1</ele>
        <time>2020-08-12T08:03:43Z</time>
      </trkpt>
      <trkpt lat="48.64405" lon="7.12444">
        <ele>460.7</ele>
        <time>2020-08-12T08:03:45Z</time>
      </trkpt>
      <trkpt lat="48.64404" lon="7.12434">
        <ele>460.7</ele>
        <time>2020-08-12T08:03:47Z</time>
      </trkpt>
      <trkpt lat="48.64403" lon="7.12423">
        <ele>460.6</ele>
        <time>2020-08-12T08:03:49Z</time>
      </trkpt>
      <trkpt lat="48.64402" lon="7.12413">
        <ele>461.6</ele>
        <time>2020-08-12T08:03:51Z</time>
      </trkpt>
      <trkpt lat="48.644" lon="7.12405">
        <ele>461.8</ele>
        <time>2020-08-12T08:03:53Z</time>
      </trkpt>
      <trkpt lat="48.64396" lon="7.12398">
        <ele>462.6</ele>
        <time>2020-08-12T08:03:55Z</time>
      </trkpt>
      <trkpt lat="48.64392" lon="7.12389">
        <ele>463.2</ele>
        <time>2020-08-12T08:03:57Z</time>
      </trkpt>
      <trkpt lat="48.64389" lon="7.12378">
        <ele>463</ele>
        <time>2020-08-12T08:03:59Z</time>
      </trkpt>
      <trkpt lat="48.64388" lon="7.12367">
        <ele>463</ele>
        <time>2020-08-12T08:04:01Z</time>
      </trkpt>
      <trkpt lat="48.64384" lon="7.12354">
        <ele>462.8</ele>
        <time>2020-08-12T08:04:03Z</time>
      </trkpt>
      <trkpt lat="48.64381" lon="7.12341">
        <ele>462.7</ele>
        <time>2020-08-12T08:04:05Z</time>
      </trkpt>
      <trkpt lat="48.64378" lon="7.1233">
        <ele>461.9</ele>
        <time>2020-08-12T08:04:07Z</time>
      </trkpt>
      <trkpt lat="48.64376" lon="7.1232">
        <ele>461.4</ele>
        <time>2020-08-12T08:04:09Z</time>
      </trkpt>
      <trkpt lat="48.64373" lon="7.12309">
        <ele>461.2</ele>
        <time>2020-08-12T08:04:11Z</time>
      </trkpt>
      <trkpt lat="48.6437" lon="7.12299">
        <ele>459.7</ele>
        <time>2020-08-12T08:04:13Z</time>
      </trkpt>
      <trkpt lat="48.64365" lon="7.1229">
        <ele>458.7</ele>
        <time>2020-08-12T08:04:15Z</time>
      </trkpt>
      <trkpt lat="48.64359" lon="7.1228">
        <ele>457.6</ele>
        <time>2020-08-12T08:04:17Z</time>
      </trkpt>
      <trkpt lat="48.64351" lon="7.12272">
        <ele>455.4</ele>
        <time>2020-08-12T08:04:19Z</time>
      </trkpt>
      <trkpt lat="48.64346" lon="7.12266">
        <ele>453.9</ele>
        <time>2020-08-12T08:04:21Z</time>
      </trkpt>
      <trkpt lat="48.64342" lon="7.12263">
        <ele>451.5</ele>
        <time>2020-08-12T08:04:26Z</time>
      </trkpt>
      <trkpt lat="48.64337" lon="7.12258">
        <ele>452</ele>
        <time>2020-08-12T08:04:32Z</time>
      </trkpt>
      <trkpt lat="48.64332" lon="7.12253">
        <ele>452.5</ele>
        <time>2020-08-12T08:04:34Z</time>
      </trkpt>
      <trkpt lat="48.64327" lon="7.12246">
        <ele>452.6</ele>
        <time>2020-08-12T08:04:36Z</time>
      </trkpt>
      <trkpt lat="48.6432" lon="7.12237">
        <ele>452.2</ele>
        <time>2020-08-12T08:04:38Z</time>
      </trkpt>
      <trkpt lat="48.64313" lon="7.12227">
        <ele>451.8</ele>
        <time>2020-08-12T08:04:40Z</time>
      </trkpt>
      <trkpt lat="48.64307" lon="7.12218">
        <ele>451.2</ele>
        <time>2020-08-12T08:04:42Z</time>
      </trkpt>
      <trkpt lat="48.64302" lon="7.12209">
        <ele>449.8</ele>
        <time>2020-08-12T08:04:44Z</time>
      </trkpt>
      <trkpt lat="48.64296" lon="7.12201">
        <ele>449.6</ele>
        <time>2020-08-12T08:04:46Z</time>
      </trkpt>
      <trkpt lat="48.64291" lon="7.12191">
        <ele>449.4</ele>
        <time>2020-08-12T08:04:48Z</time>
      </trkpt>
      <trkpt lat="48.64285" lon="7.12182">
        <ele>449.3</ele>
        <time>2020-08-12T08:04:50Z</time>
      </trkpt>
      <trkpt lat="48.64278" lon="7.12173">
        <ele>449.6</ele>
        <time>2020-08-12T08:04:52Z</time>
      </trkpt>
      <trkpt lat="48.6427" lon="7.12164">
        <ele>450.1</ele>
        <time>2020-08-12T08:04:54Z</time>
      </trkpt>
      <trkpt lat="48.64262" lon="7.12155">
        <ele>450.1</ele>
        <time>2020-08-12T08:04:56Z</time>
      </trkpt>
      <trkpt lat="48.64255" lon="7.12146">
        <ele>449.7</ele>
        <time>2020-08-12T08:04:58Z</time>
      </trkpt>
      <trkpt lat="48.64248" lon="7.12136">
        <ele>450</ele>
        <time>2020-08-12T08:05:00Z</time>
      </trkpt>
      <trkpt lat="48.6424" lon="7.12125">
        <ele>449.6</ele>
        <time>2020-08-12T08:05:02Z</time>
      </trkpt>
      <trkpt lat="48.64233" lon="7.12115">
        <ele>449.3</ele>
        <time>2020-08-12T08:05:04Z</time>
      </trkpt>
      <trkpt lat="48.64225" lon="7.12104">
        <ele>449.1</ele>
        <time>2020-08-12T08:05:06Z</time>
      </trkpt>
      <trkpt lat="48.64218" lon="7.12095">
        <ele>449.1</ele>
        <time>2020-08-12T08:05:08Z</time>
      </trkpt>
      <trkpt lat="48.64211" lon="7.12085">
        <ele>448.5</ele>
        <time>2020-08-12T08:05:10Z</time>
      </trkpt>
      <trkpt lat="48.64203" lon="7.12076">
        <ele>447.9</ele>
        <time>2020-08-12T08:05:12Z</time>
      </trkpt>
      <trkpt lat="48.64195" lon="7.12066">
        <ele>448.6</ele>
        <time>2020-08-12T08:05:14Z</time>
      </trkpt>
      <trkpt lat="48.64187" lon="7.12056">
        <ele>448.7</ele>
        <time>2020-08-12T08:05:16Z</time>
      </trkpt>
      <trkpt lat="48.64178" lon="7.12047">
        <ele>449.4</ele>
        <time>2020-08-12T08:05:18Z</time>
      </trkpt>
      <trkpt lat="48.64171" lon="7.12038">
        <ele>449.8</ele>
        <time>2020-08-12T08:05:20Z</time>
      </trkpt>
      <trkpt lat="48.64164" lon="7.12029">
        <ele>450.1</ele>
        <time>2020-08-12T08:05:22Z</time>
      </trkpt>
      <trkpt lat="48.64157" lon="7.1202">
        <ele>450</ele>
        <time>2020-08-12T08:05:24Z</time>
      </trkpt>
      <trkpt lat="48.6415" lon="7.12011">
        <ele>450.1</ele>
        <time>2020-08-12T08:05:26Z</time>
      </trkpt>
      <trkpt lat="48.64144" lon="7.12001">
        <ele>450</ele>
        <time>2020-08-12T08:05:28Z</time>
      </trkpt>
      <trkpt lat="48.64137" lon="7.1199">
        <ele>450.6</ele>
        <time>2020-08-12T08:05:30Z</time>
      </trkpt>
      <trkpt lat="48.64131" lon="7.11979">
        <ele>451.4</ele>
        <time>2020-08-12T08:05:32Z</time>
      </trkpt>
      <trkpt lat="48.64125" lon="7.1197">
        <ele>451.2</ele>
        <time>2020-08-12T08:05:34Z</time>
      </trkpt>
      <trkpt lat="48.64119" lon="7.11958">
        <ele>451.3</ele>
        <time>2020-08-12T08:05:36Z</time>
      </trkpt>
      <trkpt lat="48.64112" lon="7.11947">
        <ele>451.1</ele>
        <time>2020-08-12T08:05:38Z</time>
      </trkpt>
      <trkpt lat="48.64103" lon="7.11937">
        <ele>451.3</ele>
        <time>2020-08-12T08:05:40Z</time>
      </trkpt>
      <trkpt lat="48.64094" lon="7.11928">
        <ele>452</ele>
        <time>2020-08-12T08:05:42Z</time>
      </trkpt>
      <trkpt lat="48.64086" lon="7.1192">
        <ele>452.3</ele>
        <time>2020-08-12T08:05:44Z</time>
      </trkpt>
      <trkpt lat="48.64078" lon="7.11912">
        <ele>452.3</ele>
        <time>2020-08-12T08:05:46Z</time>
      </trkpt>
      <trkpt lat="48.6407" lon="7.11904">
        <ele>451.6</ele>
        <time>2020-08-12T08:05:48Z</time>
      </trkpt>
      <trkpt lat="48.64063" lon="7.11895">
        <ele>450.7</ele>
        <time>2020-08-12T08:05:50Z</time>
      </trkpt>
      <trkpt lat="48.64055" lon="7.11885">
        <ele>450.1</ele>
        <time>2020-08-12T08:05:52Z</time>
      </trkpt>
      <trkpt lat="48.64047" lon="7.11873">
        <ele>449.8</ele>
        <time>2020-08-12T08:05:54Z</time>
      </trkpt>
      <trkpt lat="48.64039" lon="7.11862">
        <ele>449.1</ele>
        <time>2020-08-12T08:05:56Z</time>
      </trkpt>
      <trkpt lat="48.64031" lon="7.1185">
        <ele>448.9</ele>
        <time>2020-08-12T08:05:58Z</time>
      </trkpt>
      <trkpt lat="48.64024" lon="7.11837">
        <ele>448.7</ele>
        <time>2020-08-12T08:06:00Z</time>
      </trkpt>
      <trkpt lat="48.64017" lon="7.11824">
        <ele>448.6</ele>
        <time>2020-08-12T08:06:02Z</time>
      </trkpt>
      <trkpt lat="48.64008" lon="7.11814">
        <ele>448.1</ele>
        <time>2020-08-12T08:06:04Z</time>
      </trkpt>
      <trkpt lat="48.63999" lon="7.11804">
        <ele>447.1</ele>
        <time>2020-08-12T08:06:06Z</time>
      </trkpt>
      <trkpt lat="48.6399" lon="7.11793">
        <ele>446.5</ele>
        <time>2020-08-12T08:06:08Z</time>
      </trkpt>
      <trkpt lat="48.63981" lon="7.11781">
        <ele>446</ele>
        <time>2020-08-12T08:06:10Z</time>
      </trkpt>
      <trkpt lat="48.63971" lon="7.1177">
        <ele>445.5</ele>
        <time>2020-08-12T08:06:12Z</time>
      </trkpt>
      <trkpt lat="48.63961" lon="7.1176">
        <ele>445.2</ele>
        <time>2020-08-12T08:06:14Z</time>
      </trkpt>
      <trkpt lat="48.63953" lon="7.11749">
        <ele>444.6</ele>
        <time>2020-08-12T08:06:16Z</time>
      </trkpt>
      <trkpt lat="48.63946" lon="7.11741">
        <ele>443.9</ele>
        <time>2020-08-12T08:06:18Z</time>
      </trkpt>
      <trkpt lat="48.6394" lon="7.11733">
        <ele>443.7</ele>
        <time>2020-08-12T08:06:20Z</time>
      </trkpt>
      <trkpt lat="48.63932" lon="7.11725">
        <ele>443.5</ele>
        <time>2020-08-12T08:06:22Z</time>
      </trkpt>
      <trkpt lat="48.63923" lon="7.11718">
        <ele>443.8</ele>
        <time>2020-08-12T08:06:24Z</time>
      </trkpt>
      <trkpt lat="48.63914" lon="7.11712">
        <ele>443.7</ele>
        <time>2020-08-12T08:06:26Z</time>
      </trkpt>
      <trkpt lat="48.63907" lon="7.11706">
        <ele>443.4</ele>
        <time>2020-08-12T08:06:28Z</time>
      </trkpt>
      <trkpt lat="48.63898" lon="7.11701">
        <ele>442.9</ele>
        <time>2020-08-12T08:06:30Z</time>
      </trkpt>
      <trkpt lat="48.6389" lon="7.11695">
        <ele>442.6</ele>
        <time>2020-08-12T08:06:32Z</time>
      </trkpt>
      <trkpt lat="48.6388" lon="7.1169">
        <ele>441.7</ele>
        <time>2020-08-12T08:06:34Z</time>
      </trkpt>
      <trkpt lat="48.63871" lon="7.11682">
        <ele>440.8</ele>
        <time>2020-08-12T08:06:36Z</time>
      </trkpt>
      <trkpt lat="48.63861" lon="7.11675">
        <ele>440.2</ele>
        <time>2020-08-12T08:06:38Z</time>
      </trkpt>
      <trkpt lat="48.63852" lon="7.11667">
        <ele>439.3</ele>
        <time>2020-08-12T08:06:40Z</time>
      </trkpt>
      <trkpt lat="48.63841" lon="7.11659">
        <ele>439.3</ele>
        <time>2020-08-12T08:06:42Z</time>
      </trkpt>
      <trkpt lat="48.63831" lon="7.1165">
        <ele>439</ele>
        <time>2020-08-12T08:06:44Z</time>
      </trkpt>
      <trkpt lat="48.63823" lon="7.11639">
        <ele>438.5</ele>
        <time>2020-08-12T08:06:46Z</time>
      </trkpt>
      <trkpt lat="48.63813" lon="7.11629">
        <ele>438.7</ele>
        <time>2020-08-12T08:06:48Z</time>
      </trkpt>
      <trkpt lat="48.63803" lon="7.11619">
        <ele>437.8</ele>
        <time>2020-08-12T08:06:50Z</time>
      </trkpt>
      <trkpt lat="48.63793" lon="7.1161">
        <ele>437.5</ele>
        <time>2020-08-12T08:06:52Z</time>
      </trkpt>
      <trkpt lat="48.63784" lon="7.11599">
        <ele>437</ele>
        <time>2020-08-12T08:06:54Z</time>
      </trkpt>
      <trkpt lat="48.63774" lon="7.1159">
        <ele>436.8</ele>
        <time>2020-08-12T08:06:56Z</time>
      </trkpt>
      <trkpt lat="48.63764" lon="7.11582">
        <ele>436.1</ele>
        <time>2020-08-12T08:06:58Z</time>
      </trkpt>
      <trkpt lat="48.63753" lon="7.11577">
        <ele>435.9</ele>
        <time>2020-08-12T08:07:00Z</time>
      </trkpt>
      <trkpt lat="48.63741" lon="7.11576">
        <ele>435.6</ele>
        <time>2020-08-12T08:07:02Z</time>
      </trkpt>
      <trkpt lat="48.63731" lon="7.11575">
        <ele>434.5</ele>
        <time>2020-08-12T08:07:04Z</time>
      </trkpt>
      <trkpt lat="48.6372" lon="7.11574">
        <ele>434.2</ele>
        <time>2020-08-12T08:07:06Z</time>
      </trkpt>
      <trkpt lat="48.63709" lon="7.11569">
        <ele>434.5</ele>
        <time>2020-08-12T08:07:08Z</time>
      </trkpt>
      <trkpt lat="48.63698" lon="7.11563">
        <ele>435.2</ele>
        <time>2020-08-12T08:07:10Z</time>
      </trkpt>
      <trkpt lat="48.63687" lon="7.11558">
        <ele>436.4</ele>
        <time>2020-08-12T08:07:12Z</time>
      </trkpt>
      <trkpt lat="48.63675" lon="7.11553">
        <ele>437.1</ele>
        <time>2020-08-12T08:07:14Z</time>
      </trkpt>
      <trkpt lat="48.63663" lon="7.11549">
        <ele>437.6</ele>
        <time>2020-08-12T08:07:16Z</time>
      </trkpt>
      <trkpt lat="48.63652" lon="7.11543">
        <ele>438</ele>
        <time>2020-08-12T08:07:18Z</time>
      </trkpt>
      <trkpt lat="48.63642" lon="7.11538">
        <ele>438.3</ele>
        <time>2020-08-12T08:07:20Z</time>
      </trkpt>
      <trkpt lat="48.63632" lon="7.11536">
        <ele>438.3</ele>
        <time>2020-08-12T08:07:22Z</time>
      </trkpt>
      <trkpt lat="48.63623" lon="7.11534">
        <ele>438.4</ele>
        <time>2020-08-12T08:07:24Z</time>
      </trkpt>
      <trkpt lat="48.63613" lon="7.11534">
        <ele>438</ele>
        <time>2020-08-12T08:07:26Z</time>
      </trkpt>
      <trkpt lat="48.63602" lon="7.11532">
        <ele>437.8</ele>
        <time>2020-08-12T08:07:28Z</time>
      </trkpt>
      <trkpt lat="48.63591" lon="7.1153">
        <ele>437.3</ele>
        <time>2020-08-12T08:07:30Z</time>
      </trkpt>
      <trkpt lat="48.63581" lon="7.11528">
        <ele>437.2</ele>
        <time>2020-08-12T08:07:32Z</time>
      </trkpt>
      <trkpt lat="48.6357" lon="7.11526">
        <ele>437.1</ele>
        <time>2020-08-12T08:07:34Z</time>
      </trkpt>
      <trkpt lat="48.6356" lon="7.11524">
        <ele>437.6</ele>
        <time>2020-08-12T08:07:36Z</time>
      </trkpt>
      <trkpt lat="48.6355" lon="7.11522">
        <ele>438</ele>
        <time>2020-08-12T08:07:38Z</time>
      </trkpt>
      <trkpt lat="48.63541" lon="7.11522">
        <ele>438.4</ele>
        <time>2020-08-12T08:07:40Z</time>
      </trkpt>
      <trkpt lat="48.63532" lon="7.1152">
        <ele>438.9</ele>
        <time>2020-08-12T08:07:42Z</time>
      </trkpt>
      <trkpt lat="48.63524" lon="7.11519">
        <ele>439.4</ele>
        <time>2020-08-12T08:07:44Z</time>
      </trkpt>
      <trkpt lat="48.63515" lon="7.11521">
        <ele>439.3</ele>
        <time>2020-08-12T08:07:46Z</time>
      </trkpt>
      <trkpt lat="48.63506" lon="7.11522">
        <ele>439.1</ele>
        <time>2020-08-12T08:07:48Z</time>
      </trkpt>
      <trkpt lat="48.63497" lon="7.11525">
        <ele>438.8</ele>
        <time>2020-08-12T08:07:50Z</time>
      </trkpt>
      <trkpt lat="48.63489" lon="7.1153">
        <ele>439</ele>
        <time>2020-08-12T08:07:52Z</time>
      </trkpt>
      <trkpt lat="48.6348" lon="7.11535">
        <ele>438.9</ele>
        <time>2020-08-12T08:07:54Z</time>
      </trkpt>
      <trkpt lat="48.63471" lon="7.11539">
        <ele>439.2</ele>
        <time>2020-08-12T08:07:56Z</time>
      </trkpt>
      <trkpt lat="48.63462" lon="7.11541">
        <ele>439.4</ele>
        <time>2020-08-12T08:07:58Z</time>
      </trkpt>
      <trkpt lat="48.63453" lon="7.11545">
        <ele>439.6</ele>
        <time>2020-08-12T08:08:00Z</time>
      </trkpt>
      <trkpt lat="48.63446" lon="7.11549">
        <ele>439.9</ele>
        <time>2020-08-12T08:08:02Z</time>
      </trkpt>
      <trkpt lat="48.63442" lon="7.11553">
        <ele>440.1</ele>
        <time>2020-08-12T08:08:06Z</time>
      </trkpt>
      <trkpt lat="48.63435" lon="7.11557">
        <ele>440.1</ele>
        <time>2020-08-12T08:08:17Z</time>
      </trkpt>
      <trkpt lat="48.63429" lon="7.11561">
        <ele>440.5</ele>
        <time>2020-08-12T08:08:19Z</time>
      </trkpt>
      <trkpt lat="48.63422" lon="7.11564">
        <ele>440.7</ele>
        <time>2020-08-12T08:08:21Z</time>
      </trkpt>
      <trkpt lat="48.63415" lon="7.11566">
        <ele>440.8</ele>
        <time>2020-08-12T08:08:23Z</time>
      </trkpt>
      <trkpt lat="48.63407" lon="7.11566">
        <ele>441</ele>
        <time>2020-08-12T08:08:25Z</time>
      </trkpt>
      <trkpt lat="48.63398" lon="7.11567">
        <ele>440.9</ele>
        <time>2020-08-12T08:08:27Z</time>
      </trkpt>
      <trkpt lat="48.63389" lon="7.11569">
        <ele>440.6</ele>
        <time>2020-08-12T08:08:29Z</time>
      </trkpt>
      <trkpt lat="48.63381" lon="7.11573">
        <ele>440.1</ele>
        <time>2020-08-12T08:08:31Z</time>
      </trkpt>
      <trkpt lat="48.63373" lon="7.11576">
        <ele>439.6</ele>
        <time>2020-08-12T08:08:33Z</time>
      </trkpt>
      <trkpt lat="48.63366" lon="7.11579">
        <ele>438.8</ele>
        <time>2020-08-12T08:08:35Z</time>
      </trkpt>
      <trkpt lat="48.63359" lon="7.11582">
        <ele>438.7</ele>
        <time>2020-08-12T08:08:37Z</time>
      </trkpt>
      <trkpt lat="48.63351" lon="7.11585">
        <ele>438.2</ele>
        <time>2020-08-12T08:08:39Z</time>
      </trkpt>
      <trkpt lat="48.63343" lon="7.11585">
        <ele>437.1</ele>
        <time>2020-08-12T08:08:41Z</time>
      </trkpt>
      <trkpt lat="48.63332" lon="7.11586">
        <ele>436.9</ele>
        <time>2020-08-12T08:08:43Z</time>
      </trkpt>
      <trkpt lat="48.63322" lon="7.11583">
        <ele>436.3</ele>
        <time>2020-08-12T08:08:45Z</time>
      </trkpt>
      <trkpt lat="48.63313" lon="7.11576">
        <ele>435.9</ele>
        <time>2020-08-12T08:08:47Z</time>
      </trkpt>
      <trkpt lat="48.63306" lon="7.11566">
        <ele>435.2</ele>
        <time>2020-08-12T08:08:49Z</time>
      </trkpt>
      <trkpt lat="48.633" lon="7.11555">
        <ele>435.3</ele>
        <time>2020-08-12T08:08:51Z</time>
      </trkpt>
      <trkpt lat="48.63295" lon="7.11544">
        <ele>435.2</ele>
        <time>2020-08-12T08:08:53Z</time>
      </trkpt>
      <trkpt lat="48.63289" lon="7.11531">
        <ele>435.1</ele>
        <time>2020-08-12T08:08:55Z</time>
      </trkpt>
      <trkpt lat="48.63285" lon="7.11519">
        <ele>434.9</ele>
        <time>2020-08-12T08:08:57Z</time>
      </trkpt>
      <trkpt lat="48.6328" lon="7.11505">
        <ele>434.8</ele>
        <time>2020-08-12T08:08:59Z</time>
      </trkpt>
      <trkpt lat="48.63276" lon="7.11491">
        <ele>434.7</ele>
        <time>2020-08-12T08:09:01Z</time>
      </trkpt>
      <trkpt lat="48.63273" lon="7.11478">
        <ele>434.3</ele>
        <time>2020-08-12T08:09:03Z</time>
      </trkpt>
      <trkpt lat="48.63271" lon="7.11465">
        <ele>433.8</ele>
        <time>2020-08-12T08:09:05Z</time>
      </trkpt>
      <trkpt lat="48.6327" lon="7.11451">
        <ele>432.9</ele>
        <time>2020-08-12T08:09:07Z</time>
      </trkpt>
      <trkpt lat="48.63272" lon="7.11437">
        <ele>432</ele>
        <time>2020-08-12T08:09:09Z</time>
      </trkpt>
      <trkpt lat="48.63275" lon="7.11421">
        <ele>430.8</ele>
        <time>2020-08-12T08:09:11Z</time>
      </trkpt>
      <trkpt lat="48.63278" lon="7.11406">
        <ele>429.9</ele>
        <time>2020-08-12T08:09:13Z</time>
      </trkpt>
      <trkpt lat="48.63282" lon="7.1139">
        <ele>428.4</ele>
        <time>2020-08-12T08:09:15Z</time>
      </trkpt>
      <trkpt lat="48.63287" lon="7.11376">
        <ele>427.2</ele>
        <time>2020-08-12T08:09:17Z</time>
      </trkpt>
      <trkpt lat="48.63292" lon="7.11363">
        <ele>425.5</ele>
        <time>2020-08-12T08:09:19Z</time>
      </trkpt>
      <trkpt lat="48.63298" lon="7.11352">
        <ele>424.3</ele>
        <time>2020-08-12T08:09:21Z</time>
      </trkpt>
      <trkpt lat="48.633" lon="7.11341">
        <ele>423.1</ele>
        <time>2020-08-12T08:09:23Z</time>
      </trkpt>
      <trkpt lat="48.63303" lon="7.11336">
        <ele>420.9</ele>
        <time>2020-08-12T08:09:31Z</time>
      </trkpt>
      <trkpt lat="48.63299" lon="7.11342">
        <ele>418.4</ele>
        <time>2020-08-12T08:09:42Z</time>
      </trkpt>
      <trkpt lat="48.63294" lon="7.11347">
        <ele>418.3</ele>
        <time>2020-08-12T08:09:44Z</time>
      </trkpt>
      <trkpt lat="48.63288" lon="7.11354">
        <ele>418.2</ele>
        <time>2020-08-12T08:09:46Z</time>
      </trkpt>
      <trkpt lat="48.63279" lon="7.11365">
        <ele>417.7</ele>
        <time>2020-08-12T08:09:48Z</time>
      </trkpt>
      <trkpt lat="48.6327" lon="7.11378">
        <ele>417.4</ele>
        <time>2020-08-12T08:09:50Z</time>
      </trkpt>
      <trkpt lat="48.6326" lon="7.11394">
        <ele>417.1</ele>
        <time>2020-08-12T08:09:52Z</time>
      </trkpt>
      <trkpt lat="48.6325" lon="7.11409">
        <ele>417</ele>
        <time>2020-08-12T08:09:54Z</time>
      </trkpt>
      <trkpt lat="48.6324" lon="7.11425">
        <ele>417</ele>
        <time>2020-08-12T08:09:56Z</time>
      </trkpt>
      <trkpt lat="48.63229" lon="7.1144">
        <ele>416.4</ele>
        <time>2020-08-12T08:09:58Z</time>
      </trkpt>
      <trkpt lat="48.6322" lon="7.11455">
        <ele>417.2</ele>
        <time>2020-08-12T08:10:00Z</time>
      </trkpt>
      <trkpt lat="48.63212" lon="7.11473">
        <ele>416.8</ele>
        <time>2020-08-12T08:10:02Z</time>
      </trkpt>
      <trkpt lat="48.63208" lon="7.11493">
        <ele>415.9</ele>
        <time>2020-08-12T08:10:04Z</time>
      </trkpt>
      <trkpt lat="48.63207" lon="7.11513">
        <ele>415.1</ele>
        <time>2020-08-12T08:10:06Z</time>
      </trkpt>
      <trkpt lat="48.63208" lon="7.11532">
        <ele>413.9</ele>
        <time>2020-08-12T08:10:08Z</time>
      </trkpt>
      <trkpt lat="48.6321" lon="7.11553">
        <ele>413.1</ele>
        <time>2020-08-12T08:10:10Z</time>
      </trkpt>
      <trkpt lat="48.63214" lon="7.11571">
        <ele>412</ele>
        <time>2020-08-12T08:10:12Z</time>
      </trkpt>
      <trkpt lat="48.63219" lon="7.11589">
        <ele>411</ele>
        <time>2020-08-12T08:10:14Z</time>
      </trkpt>
      <trkpt lat="48.63227" lon="7.11605">
        <ele>409.9</ele>
        <time>2020-08-12T08:10:16Z</time>
      </trkpt>
      <trkpt lat="48.63236" lon="7.11619">
        <ele>409.3</ele>
        <time>2020-08-12T08:10:18Z</time>
      </trkpt>
      <trkpt lat="48.63246" lon="7.11633">
        <ele>408.7</ele>
        <time>2020-08-12T08:10:20Z</time>
      </trkpt>
      <trkpt lat="48.63257" lon="7.11646">
        <ele>408.1</ele>
        <time>2020-08-12T08:10:22Z</time>
      </trkpt>
      <trkpt lat="48.63267" lon="7.11657">
        <ele>407.6</ele>
        <time>2020-08-12T08:10:24Z</time>
      </trkpt>
      <trkpt lat="48.63277" lon="7.11667">
        <ele>406.9</ele>
        <time>2020-08-12T08:10:26Z</time>
      </trkpt>
      <trkpt lat="48.63286" lon="7.11676">
        <ele>406.8</ele>
        <time>2020-08-12T08:10:28Z</time>
      </trkpt>
      <trkpt lat="48.63296" lon="7.11683">
        <ele>406.4</ele>
        <time>2020-08-12T08:10:30Z</time>
      </trkpt>
      <trkpt lat="48.63306" lon="7.1169">
        <ele>406.2</ele>
        <time>2020-08-12T08:10:32Z</time>
      </trkpt>
      <trkpt lat="48.63316" lon="7.11698">
        <ele>405.8</ele>
        <time>2020-08-12T08:10:34Z</time>
      </trkpt>
      <trkpt lat="48.63326" lon="7.11706">
        <ele>405.4</ele>
        <time>2020-08-12T08:10:36Z</time>
      </trkpt>
      <trkpt lat="48.63335" lon="7.11713">
        <ele>405.3</ele>
        <time>2020-08-12T08:10:38Z</time>
      </trkpt>
      <trkpt lat="48.63345" lon="7.1172">
        <ele>405.4</ele>
        <time>2020-08-12T08:10:40Z</time>
      </trkpt>
      <trkpt lat="48.63354" lon="7.11726">
        <ele>406</ele>
        <time>2020-08-12T08:10:42Z</time>
      </trkpt>
      <trkpt lat="48.63363" lon="7.11732">
        <ele>406.5</ele>
        <time>2020-08-12T08:10:44Z</time>
      </trkpt>
      <trkpt lat="48.63372" lon="7.11738">
        <ele>406.4</ele>
        <time>2020-08-12T08:10:46Z</time>
      </trkpt>
      <trkpt lat="48.63381" lon="7.11745">
        <ele>406.4</ele>
        <time>2020-08-12T08:10:48Z</time>
      </trkpt>
      <trkpt lat="48.63391" lon="7.11754">
        <ele>406.3</ele>
        <time>2020-08-12T08:10:50Z</time>
      </trkpt>
      <trkpt lat="48.634" lon="7.11761">
        <ele>406.2</ele>
        <time>2020-08-12T08:10:52Z</time>
      </trkpt>
    </trkseg>
  </trk>
</gpx>